sensor_id;sensor_type;location;lat;lon;timestamp;pressure;altitude;pressure_sealevel;temperature;humidity
13241;BME280;6687;47.790;7.322;2022-11-20T06:12:28;98720.09;;;8.48;89.90
13241;BME280;6687;47.790;7.322;2022-11-20T06:14:55;98721.63;;;8.25;89.83
13241;BME280;6687;47.790;7.322;2022-11-20T06:17:21;98713.97;;;8.37;89.76
13241;BME280;6687;47.790;7.322;2022-11-20T06:19:48;98709.91;;;8.70;88.04
13241;BME280;6687;47.790;7.322;2022-11-20T06:22:15;98710.56;;;8.41;88.60
13241;BME280;6687;47.790;7.322;2022-11-20T06:24:41;98716.66;;;8.49;88.31
13241;BME280;6687;47.790;7.322;2022-11-20T06:27:08;98724.31;;;8.40;88.99
13241;BME280;6687;47.790;7.322;2022-11-20T06:29:36;98711.59;;;8.69;87.73
13241;BME280;6687;47.790;7.322;2022-11-20T06:32:03;98709.91;;;8.70;87.01
13241;BME280;6687;47.790;7.322;2022-11-20T06:34:30;98714.16;;;8.63;87.51
13241;BME280;6687;47.790;7.322;2022-11-20T06:36:57;98704.69;;;8.67;87.32
13241;BME280;6687;47.790;7.322;2022-11-20T06:39:23;98710.63;;;8.46;87.36
13241;BME280;6687;47.790;7.322;2022-11-20T06:41:50;98711.53;;;8.59;87.58
13241;BME280;6687;47.790;7.322;2022-11-20T06:44:17;98704.50;;;8.36;88.44
13241;BME280;6687;47.790;7.322;2022-11-20T06:46:45;98714.03;;;8.45;87.80
13241;BME280;6687;47.790;7.322;2022-11-20T06:49:12;98707.28;;;8.64;87.06
13241;BME280;6687;47.790;7.322;2022-11-20T06:51:38;98707.19;;;8.48;87.51
13241;BME280;6687;47.790;7.322;2022-11-20T06:54:05;98713.09;;;8.35;88.36
13241;BME280;6687;47.790;7.322;2022-11-20T06:56:32;98717.25;;;8.14;89.04
13241;BME280;6687;47.790;7.322;2022-11-20T06:59:03;98724.22;;;8.26;89.11
13241;BME280;6687;47.790;7.322;2022-11-20T07:01:30;98731.78;;;8.03;89.55
13241;BME280;6687;47.790;7.322;2022-11-20T07:03:58;98735.31;;;8.17;89.23
13241;BME280;6687;47.790;7.322;2022-11-20T07:06:25;98730.88;;;7.98;89.60
13241;BME280;6687;47.790;7.322;2022-11-20T07:08:52;98737.84;;;8.08;90.53
13241;BME280;6687;47.790;7.322;2022-11-20T07:11:19;98733.66;;;8.23;89.91
13241;BME280;6687;47.790;7.322;2022-11-20T07:13:46;98738.78;;;8.21;90.05
13241;BME280;6687;47.790;7.322;2022-11-20T07:16:13;98739.75;;;8.35;89.14
13241;BME280;6687;47.790;7.322;2022-11-20T07:18:39;98739.50;;;8.00;90.30
13241;BME280;6687;47.790;7.322;2022-11-20T07:21:09;98740.34;;;7.96;90.03
13241;BME280;6687;47.790;7.322;2022-11-20T07:23:36;98744.75;;;8.12;90.27
13241;BME280;6687;47.790;7.322;2022-11-20T07:26:04;98743.84;;;8.04;90.12
13241;BME280;6687;47.790;7.322;2022-11-20T07:28:31;98750.94;;;8.30;89.71
13241;BME280;6687;47.790;7.322;2022-11-20T07:30:58;98753.28;;;8.02;89.79
13241;BME280;6687;47.790;7.322;2022-11-20T07:33:25;98758.50;;;8.11;90.55
13241;BME280;6687;47.790;7.322;2022-11-20T07:35:51;98754.22;;;8.10;90.47
13241;BME280;6687;47.790;7.322;2022-11-20T07:38:20;98762.72;;;8.03;90.46
13241;BME280;6687;47.790;7.322;2022-11-20T07:40:46;98761.84;;;8.01;90.97
13241;BME280;6687;47.790;7.322;2022-11-20T07:43:14;98755.28;;;8.40;89.79
13241;BME280;6687;47.790;7.322;2022-11-20T07:45:40;98757.09;;;8.47;88.80
13241;BME280;6687;47.790;7.322;2022-11-20T07:48:07;98750.22;;;8.49;88.50
13241;BME280;6687;47.790;7.322;2022-11-20T07:50:34;98751.16;;;8.58;87.73
13241;BME280;6687;47.790;7.322;2022-11-20T07:53:02;98751.94;;;8.49;87.62
13241;BME280;6687;47.790;7.322;2022-11-20T07:55:30;98754.69;;;8.75;86.11
13241;BME280;6687;47.790;7.322;2022-11-20T07:57:58;98759.88;;;8.81;85.78
13241;BME280;6687;47.790;7.322;2022-11-20T08:00:25;98768.34;;;8.55;86.84
13241;BME280;6687;47.790;7.322;2022-11-20T08:02:52;98759.56;;;8.35;87.53
13241;BME280;6687;47.790;7.322;2022-11-20T08:05:19;98763.22;;;8.60;87.84
13241;BME280;6687;47.790;7.322;2022-11-20T08:07:46;98770.16;;;8.72;86.54
13241;BME280;6687;47.790;7.322;2022-11-20T08:10:14;98777.97;;;8.78;86.67
13241;BME280;6687;47.790;7.322;2022-11-20T08:12:47;98777.88;;;8.66;86.79
13241;BME280;6687;47.790;7.322;2022-11-20T08:15:32;98778.81;;;8.83;86.43
13241;BME280;6687;47.790;7.322;2022-11-20T08:18:00;98778.09;;;9.04;85.15
13241;BME280;6687;47.790;7.322;2022-11-20T08:20:27;98777.16;;;8.88;85.76
13241;BME280;6687;47.790;7.322;2022-11-20T08:22:57;98769.34;;;8.81;86.10
13241;BME280;6687;47.790;7.322;2022-11-20T08:25:25;98785.88;;;9.06;84.88
13241;BME280;6687;47.790;7.322;2022-11-20T08:27:53;98786.72;;;9.02;85.11
13241;BME280;6687;47.790;7.322;2022-11-20T08:30:20;98791.13;;;9.21;84.50
13241;BME280;6687;47.790;7.322;2022-11-20T08:32:46;98797.06;;;9.06;84.48
13241;BME280;6687;47.790;7.322;2022-11-20T08:35:13;98796.34;;;9.40;83.27
13241;BME280;6687;47.790;7.322;2022-11-20T08:37:40;98797.19;;;9.39;83.08
13241;BME280;6687;47.790;7.322;2022-11-20T08:40:09;98806.72;;;9.46;82.57
13241;BME280;6687;47.790;7.322;2022-11-20T08:42:36;98807.47;;;9.25;83.01
13241;BME280;6687;47.790;7.322;2022-11-20T08:45:05;98807.50;;;9.31;83.79
13241;BME280;6687;47.790;7.322;2022-11-20T08:47:32;98816.97;;;9.24;84.19
13241;BME280;6687;47.790;7.322;2022-11-20T08:49:58;98813.50;;;9.19;83.91
13241;BME280;6687;47.790;7.322;2022-11-20T08:52:25;98811.84;;;9.33;83.55
13241;BME280;6687;47.790;7.322;2022-11-20T08:54:52;98814.50;;;9.47;82.80
13241;BME280;6687;47.790;7.322;2022-11-20T08:57:18;98823.09;;;9.48;82.83
13241;BME280;6687;47.790;7.322;2022-11-20T08:59:45;98823.13;;;9.54;82.72
13241;BME280;6687;47.790;7.322;2022-11-20T09:02:13;98817.09;;;9.58;82.39
13241;BME280;6687;47.790;7.322;2022-11-20T09:04:40;98824.03;;;9.64;81.89
13241;BME280;6687;47.790;7.322;2022-11-20T09:07:07;98827.41;;;9.50;82.45
13241;BME280;6687;47.790;7.322;2022-11-20T09:09:34;98831.75;;;9.51;82.96
13241;BME280;6687;47.790;7.322;2022-11-20T09:12:00;98829.19;;;9.58;82.92
13241;BME280;6687;47.790;7.322;2022-11-20T09:14:27;98825.75;;;9.63;82.82
13241;BME280;6687;47.790;7.322;2022-11-20T09:16:55;98825.75;;;9.62;82.66
13241;BME280;6687;47.790;7.322;2022-11-20T09:19:24;98822.31;;;9.76;81.80
13241;BME280;6687;47.790;7.322;2022-11-20T09:21:51;98822.34;;;9.86;80.98
13241;BME280;6687;47.790;7.322;2022-11-20T09:24:19;98827.53;;;9.92;80.95
13241;BME280;6687;47.790;7.322;2022-11-20T09:26:45;98821.50;;;9.94;81.31
13241;BME280;6687;47.790;7.322;2022-11-20T09:29:12;98827.56;;;10.04;80.85
13241;BME280;6687;47.790;7.322;2022-11-20T09:31:39;98825.88;;;10.17;79.73
13241;BME280;6687;47.790;7.322;2022-11-20T09:34:06;98824.16;;;10.21;79.68
13241;BME280;6687;47.790;7.322;2022-11-20T09:36:34;98823.28;;;10.19;79.98
13241;BME280;6687;47.790;7.322;2022-11-20T09:39:00;98818.97;;;10.24;79.58
13241;BME280;6687;47.790;7.322;2022-11-20T09:41:46;98817.22;;;10.04;80.08
13241;BME280;6687;47.790;7.322;2022-11-20T09:44:30;98822.38;;;9.87;79.50
13241;BME280;6687;47.790;7.322;2022-11-20T09:47:05;98824.91;;;9.78;79.21
13241;BME280;6687;47.790;7.322;2022-11-20T09:49:42;98831.72;;;9.50;77.90
13241;BME280;6687;47.790;7.322;2022-11-20T09:52:22;98834.28;;;9.39;78.88
13241;BME280;6687;47.790;7.322;2022-11-20T09:54:52;98820.56;;;9.66;79.33
13241;BME280;6687;47.790;7.322;2022-11-20T09:57:23;98824.03;;;9.65;80.24
13241;BME280;6687;47.790;7.322;2022-11-20T09:59:54;98837.88;;;9.86;79.97
13241;BME280;6687;47.790;7.322;2022-11-20T10:02:28;98832.63;;;9.58;80.33
13241;BME280;6687;47.790;7.322;2022-11-20T10:04:58;98831.00;;;9.85;81.09
13241;BME280;6687;47.790;7.322;2022-11-20T10:07:34;98824.03;;;9.64;80.45
13241;BME280;6687;47.790;7.322;2022-11-20T10:10:04;98823.91;;;9.31;79.93
13241;BME280;6687;47.790;7.322;2022-11-20T10:12:41;98818.78;;;9.44;79.73
13241;BME280;6687;47.790;7.322;2022-11-20T10:15:25;98822.91;;;9.08;79.44
13241;BME280;6687;47.790;7.322;2022-11-20T10:18:21;98823.00;;;9.31;79.13
13241;BME280;6687;47.790;7.322;2022-11-20T10:20:55;98820.31;;;9.11;78.25
13241;BME280;6687;47.790;7.322;2022-11-20T10:23:59;98822.06;;;9.12;77.38
13241;BME280;6687;47.790;7.322;2022-11-20T10:26:32;98824.72;;;9.26;76.48
13241;BME280;6687;47.790;7.322;2022-11-20T10:29:11;98812.72;;;9.45;77.03
13241;BME280;6687;47.790;7.322;2022-11-20T10:31:40;98818.75;;;9.41;76.31
13241;BME280;6687;47.790;7.322;2022-11-20T10:34:16;98810.16;;;9.48;77.35
13241;BME280;6687;47.790;7.322;2022-11-20T10:36:48;98810.97;;;9.30;76.88
13241;BME280;6687;47.790;7.322;2022-11-20T10:39:23;98816.91;;;9.15;76.93
13241;BME280;6687;47.790;7.322;2022-11-20T10:41:52;98808.47;;;9.54;77.13
13241;BME280;6687;47.790;7.322;2022-11-20T10:44:21;98810.19;;;9.54;78.60
13241;BME280;6687;47.790;7.322;2022-11-20T10:47:04;98804.19;;;9.60;79.11
13241;BME280;6687;47.790;7.322;2022-11-20T10:49:32;98796.47;;;9.73;79.53
13241;BME280;6687;47.790;7.322;2022-11-20T10:52:05;98792.03;;;9.45;79.01
13241;BME280;6687;47.790;7.322;2022-11-20T10:54:42;98791.25;;;9.55;78.54
13241;BME280;6687;47.790;7.322;2022-11-20T10:57:23;98787.81;;;9.64;79.16
13241;BME280;6687;47.790;7.322;2022-11-20T10:59:59;98776.44;;;9.20;76.71
13241;BME280;6687;47.790;7.322;2022-11-20T11:02:32;98768.75;;;9.39;76.03
13241;BME280;6687;47.790;7.322;2022-11-20T11:05:10;98773.88;;;9.31;77.50
13241;BME280;6687;47.790;7.322;2022-11-20T11:07:39;98759.25;;;9.25;78.78
13241;BME280;6687;47.790;7.322;2022-11-20T11:10:15;98762.72;;;9.32;77.85
13241;BME280;6687;47.790;7.322;2022-11-20T11:12:44;98754.78;;;8.96;76.34
13241;BME280;6687;47.790;7.322;2022-11-20T11:15:14;98749.69;;;9.09;76.32
13241;BME280;6687;47.790;7.322;2022-11-20T11:17:46;98739.31;;;9.03;77.28
13241;BME280;6687;47.790;7.322;2022-11-20T11:20:18;98735.88;;;8.98;77.17
13241;BME280;6687;47.790;7.322;2022-11-20T11:22:48;98732.41;;;8.99;77.60
13241;BME280;6687;47.790;7.322;2022-11-20T11:25:25;98734.13;;;8.93;77.41
13241;BME280;6687;47.790;7.322;2022-11-20T11:27:54;98725.56;;;9.13;79.96
13241;BME280;6687;47.790;7.322;2022-11-20T11:30:22;98729.00;;;9.06;78.12
13241;BME280;6687;47.790;7.322;2022-11-20T11:32:49;98719.41;;;8.83;77.38
13241;BME280;6687;47.790;7.322;2022-11-20T11:35:24;98720.28;;;8.81;77.24
13241;BME280;6687;47.790;7.322;2022-11-20T11:37:54;98727.28;;;9.02;77.42
13241;BME280;6687;47.790;7.322;2022-11-20T11:40:31;98709.16;;;9.00;76.65
13241;BME280;6687;47.790;7.322;2022-11-20T11:43:02;98711.00;;;9.30;78.40
13241;BME280;6687;47.790;7.322;2022-11-20T11:45:29;98711.78;;;9.08;77.56
13241;BME280;6687;47.790;7.322;2022-11-20T11:47:56;98701.53;;;9.42;77.86
13241;BME280;6687;47.790;7.322;2022-11-20T11:50:29;98691.16;;;9.31;77.33
13241;BME280;6687;47.790;7.322;2022-11-20T11:53:09;98692.91;;;9.32;74.85
13241;BME280;6687;47.790;7.322;2022-11-20T11:55:43;98689.50;;;9.68;78.29
13241;BME280;6687;47.790;7.322;2022-11-20T11:58:19;98692.97;;;9.92;79.36
13241;BME280;6687;47.790;7.322;2022-11-20T12:00:55;98686.94;;;9.99;79.51
13241;BME280;6687;47.790;7.322;2022-11-20T12:03:27;98690.38;;;9.84;79.01
13241;BME280;6687;47.790;7.322;2022-11-20T12:05:59;98699.00;;;10.06;80.06
13241;BME280;6687;47.790;7.322;2022-11-20T12:08:32;98694.66;;;9.44;74.70
13241;BME280;6687;47.790;7.322;2022-11-20T12:11:10;98700.72;;;9.55;75.26
13241;BME280;6687;47.790;7.322;2022-11-20T12:13:45;98701.53;;;9.45;74.13
13241;BME280;6687;47.790;7.322;2022-11-20T12:16:18;98711.91;;;9.52;76.66
13241;BME280;6687;47.790;7.322;2022-11-20T12:18:46;98706.72;;;9.35;74.13
13241;BME280;6687;47.790;7.322;2022-11-20T12:21:28;98711.06;;;9.83;78.72
13241;BME280;6687;47.790;7.322;2022-11-20T12:24:10;98706.78;;;9.85;77.89
13241;BME280;6687;47.790;7.322;2022-11-20T12:26:52;98699.88;;;9.90;79.10
13241;BME280;6687;47.790;7.322;2022-11-20T12:29:30;98702.47;;;9.87;78.83
13241;BME280;6687;47.790;7.322;2022-11-20T12:32:43;98699.88;;;10.05;80.22
13241;BME280;6687;47.790;7.322;2022-11-20T12:38:26;98684.34;;;9.99;78.46
13241;BME280;6687;47.790;7.322;2022-11-20T12:41:02;98685.22;;;10.01;77.82
13241;BME280;6687;47.790;7.322;2022-11-20T12:43:39;98682.63;;;9.86;76.60
13241;BME280;6687;47.790;7.322;2022-11-20T12:46:30;98681.75;;;9.81;76.26
13241;BME280;6687;47.790;7.322;2022-11-20T12:49:12;98686.94;;;9.78;74.41
13241;BME280;6687;47.790;7.322;2022-11-20T12:52:08;98678.28;;;10.12;77.20
13241;BME280;6687;47.790;7.322;2022-11-20T12:54:59;98668.78;;;10.24;77.75
13241;BME280;6687;47.790;7.322;2022-11-20T12:57:35;98668.81;;;10.30;75.84
13241;BME280;6687;47.790;7.322;2022-11-20T13:00:11;98670.50;;;10.46;77.41
13241;BME280;6687;47.790;7.322;2022-11-20T13:05:45;98661.88;;;10.50;76.07
13241;BME280;6687;47.790;7.322;2022-11-20T13:08:18;98659.25;;;10.52;75.73
13241;BME280;6687;47.790;7.322;2022-11-20T13:10:50;98658.41;;;10.42;71.65
13241;BME280;6687;47.790;7.322;2022-11-20T13:13:23;98663.56;;;10.58;74.75
13241;BME280;6687;47.790;7.322;2022-11-20T13:15:57;98658.34;;;10.73;74.32
13241;BME280;6687;47.790;7.322;2022-11-20T13:18:25;98652.38;;;10.40;72.85
13241;BME280;6687;47.790;7.322;2022-11-20T13:20:52;98656.69;;;10.57;72.77
13241;BME280;6687;47.790;7.322;2022-11-20T13:23:25;98654.16;;;10.00;67.33
13241;BME280;6687;47.790;7.322;2022-11-20T13:26:03;98657.56;;;10.20;71.40
13241;BME280;6687;47.790;7.322;2022-11-20T13:28:31;98653.28;;;10.02;68.35
13241;BME280;6687;47.790;7.322;2022-11-20T13:30:59;98654.13;;;10.21;70.31
13241;BME280;6687;47.790;7.322;2022-11-20T13:33:31;98648.94;;;10.26;69.62
13241;BME280;6687;47.790;7.322;2022-11-20T13:36:00;98636.81;;;10.48;74.52
13241;BME280;6687;47.790;7.322;2022-11-20T13:38:28;98639.38;;;10.65;75.40
13241;BME280;6687;47.790;7.322;2022-11-20T13:40:57;98631.50;;;10.80;75.72
13241;BME280;6687;47.790;7.322;2022-11-20T13:43:35;98626.41;;;10.69;71.70
13241;BME280;6687;47.790;7.322;2022-11-20T13:46:06;98617.75;;;10.70;71.44
13241;BME280;6687;47.790;7.322;2022-11-20T13:48:34;98614.19;;;10.91;74.85
13241;BME280;6687;47.790;7.322;2022-11-20T13:51:20;98617.72;;;10.83;74.22
13241;BME280;6687;47.790;7.322;2022-11-20T13:54:11;98612.41;;;11.00;75.39
13241;BME280;6687;47.790;7.322;2022-11-20T13:56:50;98600.47;;;10.66;69.89
13241;BME280;6687;47.790;7.322;2022-11-20T13:59:32;98606.38;;;10.98;74.97
13241;BME280;6687;47.790;7.322;2022-11-20T14:02:10;98597.81;;;10.86;72.18
13241;BME280;6687;47.790;7.322;2022-11-20T14:04:42;98587.31;;;11.08;75.89
13241;BME280;6687;47.790;7.322;2022-11-20T14:07:10;98585.75;;;10.79;73.78
13241;BME280;6687;47.790;7.322;2022-11-20T14:09:37;98576.06;;;11.09;76.80
13241;BME280;6687;47.790;7.322;2022-11-20T14:12:14;98577.81;;;11.05;75.32
13241;BME280;6687;47.790;7.322;2022-11-20T14:14:48;98573.44;;;11.17;76.44
13241;BME280;6687;47.790;7.322;2022-11-20T14:17:20;98566.41;;;11.29;75.98
13241;BME280;6687;47.790;7.322;2022-11-20T14:19:48;98555.97;;;11.40;77.22
13241;BME280;6687;47.790;7.322;2022-11-20T14:22:18;98556.94;;;11.24;76.44
13241;BME280;6687;47.790;7.322;2022-11-20T14:24:46;98544.81;;;11.27;75.64
13241;BME280;6687;47.790;7.322;2022-11-20T14:27:14;98534.44;;;11.29;75.05
13241;BME280;6687;47.790;7.322;2022-11-20T14:29:42;98540.38;;;11.42;76.12
13241;BME280;6687;47.790;7.322;2022-11-20T14:32:10;98537.72;;;11.54;76.42
13241;BME280;6687;47.790;7.322;2022-11-20T14:34:40;98530.72;;;11.59;76.68
13241;BME280;6687;47.790;7.322;2022-11-20T14:37:12;98522.38;;;11.22;73.56
13241;BME280;6687;47.790;7.322;2022-11-20T14:39:42;98524.97;;;11.26;73.86
13241;BME280;6687;47.790;7.322;2022-11-20T14:42:15;98536.84;;;11.52;75.71
13241;BME280;6687;47.790;7.322;2022-11-20T14:44:42;98541.22;;;11.44;77.01
13241;BME280;6687;47.790;7.322;2022-11-20T14:47:13;98536.13;;;11.33;74.62
13241;BME280;6687;47.790;7.322;2022-11-20T14:49:43;98535.44;;;11.11;73.68
13241;BME280;6687;47.790;7.322;2022-11-20T14:52:13;98534.50;;;11.24;76.27
13241;BME280;6687;47.790;7.322;2022-11-20T14:54:45;98540.56;;;11.20;75.57
13241;BME280;6687;47.790;7.322;2022-11-20T14:57:25;98534.53;;;11.17;75.88
13241;BME280;6687;47.790;7.322;2022-11-20T15:00:04;98528.47;;;11.22;76.15
13241;BME280;6687;47.790;7.322;2022-11-20T15:02:32;98511.88;;;11.40;77.57
13241;BME280;6687;47.790;7.322;2022-11-20T15:05:01;98516.22;;;11.37;77.87
13241;BME280;6687;47.790;7.322;2022-11-20T15:07:30;98514.66;;;11.20;77.22
13241;BME280;6687;47.790;7.322;2022-11-20T15:10:02;98500.66;;;11.37;77.75
13241;BME280;6687;47.790;7.322;2022-11-20T15:12:30;98507.72;;;11.19;77.04
13241;BME280;6687;47.790;7.322;2022-11-20T15:14:57;98504.22;;;11.23;76.76
13241;BME280;6687;47.790;7.322;2022-11-20T15:17:24;98506.75;;;11.31;77.92
13241;BME280;6687;47.790;7.322;2022-11-20T15:19:52;98502.53;;;11.19;77.92
13241;BME280;6687;47.790;7.322;2022-11-20T15:22:21;98489.56;;;11.18;77.42
13241;BME280;6687;47.790;7.322;2022-11-20T15:24:48;98489.63;;;11.16;78.52
13241;BME280;6687;47.790;7.322;2022-11-20T15:27:14;98493.13;;;11.10;77.13
13241;BME280;6687;47.790;7.322;2022-11-20T15:29:42;98483.53;;;11.17;78.84
13241;BME280;6687;47.790;7.322;2022-11-20T15:32:08;98493.97;;;11.09;78.64
13241;BME280;6687;47.790;7.322;2022-11-20T15:34:35;98499.25;;;10.99;78.07
13241;BME280;6687;47.790;7.322;2022-11-20T15:37:02;98497.56;;;10.94;77.43
13241;BME280;6687;47.790;7.322;2022-11-20T15:39:30;98508.91;;;10.72;76.73
13241;BME280;6687;47.790;7.322;2022-11-20T15:41:57;98506.22;;;10.89;78.54
13241;BME280;6687;47.790;7.322;2022-11-20T15:44:24;98515.84;;;10.71;76.54
13241;BME280;6687;47.790;7.322;2022-11-20T15:46:50;98508.78;;;10.93;79.17
13241;BME280;6687;47.790;7.322;2022-11-20T15:49:17;98506.31;;;10.75;78.00
13241;BME280;6687;47.790;7.322;2022-11-20T15:51:47;98520.03;;;10.89;78.61
13241;BME280;6687;47.790;7.322;2022-11-20T15:54:16;98518.66;;;10.14;73.81
13241;BME280;6687;47.790;7.322;2022-11-20T15:56:46;98521.97;;;10.53;78.10
13241;BME280;6687;47.790;7.322;2022-11-20T15:59:13;98508.94;;;10.69;79.69
13241;BME280;6687;47.790;7.322;2022-11-20T16:01:41;98516.75;;;10.61;79.47
13241;BME280;6687;47.790;7.322;2022-11-20T16:04:10;98509.91;;;10.49;79.15
13241;BME280;6687;47.790;7.322;2022-11-20T16:06:37;98517.69;;;10.48;79.11
13241;BME280;6687;47.790;7.322;2022-11-20T16:09:04;98517.69;;;10.48;78.58
13241;BME280;6687;47.790;7.322;2022-11-20T16:11:31;98519.44;;;10.43;79.36
13241;BME280;6687;47.790;7.322;2022-11-20T16:13:59;98515.91;;;10.56;79.39
13241;BME280;6687;47.790;7.322;2022-11-20T16:16:43;98504.72;;;10.49;79.23
13241;BME280;6687;47.790;7.322;2022-11-20T16:19:10;98501.25;;;10.57;78.90
13241;BME280;6687;47.790;7.322;2022-11-20T16:21:38;98494.28;;;10.62;78.55
13241;BME280;6687;47.790;7.322;2022-11-20T16:24:08;98496.97;;;10.48;78.27
13241;BME280;6687;47.790;7.322;2022-11-20T16:26:36;98497.72;;;10.65;78.03
13241;BME280;6687;47.790;7.322;2022-11-20T16:29:05;98491.69;;;10.65;78.29
13241;BME280;6687;47.790;7.322;2022-11-20T16:31:32;98489.19;;;10.52;77.57
13241;BME280;6687;47.790;7.322;2022-11-20T16:34:01;98489.97;;;10.65;77.89
13241;BME280;6687;47.790;7.322;2022-11-20T16:36:29;98487.38;;;10.64;77.92
13241;BME280;6687;47.790;7.322;2022-11-20T16:38:58;98486.63;;;10.45;77.65
13241;BME280;6687;47.790;7.322;2022-11-20T16:41:26;98490.00;;;10.61;78.46
13241;BME280;6687;47.790;7.322;2022-11-20T16:43:54;98490.84;;;10.60;78.57
13241;BME280;6687;47.790;7.322;2022-11-20T16:46:25;98488.25;;;10.61;78.00
13241;BME280;6687;47.790;7.322;2022-11-20T16:48:53;98490.94;;;10.50;78.17
13241;BME280;6687;47.790;7.322;2022-11-20T16:51:21;98476.28;;;10.40;77.95
13241;BME280;6687;47.790;7.322;2022-11-20T16:53:48;98482.34;;;10.36;78.02
13241;BME280;6687;47.790;7.322;2022-11-20T16:56:17;98477.09;;;10.54;78.12
13241;BME280;6687;47.790;7.322;2022-11-20T16:58:44;98478.06;;;10.30;76.69
13241;BME280;6687;47.790;7.322;2022-11-20T17:01:13;98472.88;;;10.27;78.11
13241;BME280;6687;47.790;7.322;2022-11-20T17:03:43;98475.47;;;10.30;77.70
13241;BME280;6687;47.790;7.322;2022-11-20T17:06:11;98473.75;;;10.31;77.88
13241;BME280;6687;47.790;7.322;2022-11-20T17:08:38;98467.63;;;10.44;77.95
13241;BME280;6687;47.790;7.322;2022-11-20T17:11:06;98477.22;;;10.19;77.17
13241;BME280;6687;47.790;7.322;2022-11-20T17:13:33;98470.28;;;10.32;77.36
13241;BME280;6687;47.790;7.322;2022-11-20T17:16:01;98479.78;;;10.31;78.38
13241;BME280;6687;47.790;7.322;2022-11-20T17:18:28;98481.59;;;9.99;76.82
13241;BME280;6687;47.790;7.322;2022-11-20T17:20:56;98485.91;;;10.06;78.03
13241;BME280;6687;47.790;7.322;2022-11-20T17:23:26;98477.38;;;9.68;77.29
13241;BME280;6687;47.790;7.322;2022-11-20T17:26:00;98488.66;;;9.53;76.28
13241;BME280;6687;47.790;7.322;2022-11-20T17:28:26;98481.72;;;9.71;78.70
13241;BME280;6687;47.790;7.322;2022-11-20T17:30:53;98504.19;;;9.33;75.33
13241;BME280;6687;47.790;7.322;2022-11-20T17:33:24;98505.88;;;9.33;77.15
13241;BME280;6687;47.790;7.322;2022-11-20T17:35:50;98517.09;;;9.24;76.99
13241;BME280;6687;47.790;7.322;2022-11-20T17:38:19;98524.84;;;9.04;77.41
13241;BME280;6687;47.790;7.322;2022-11-20T17:40:45;98522.28;;;9.12;78.97
13241;BME280;6687;47.790;7.322;2022-11-20T17:43:12;98517.97;;;9.09;79.65
13241;BME280;6687;47.790;7.322;2022-11-20T17:45:39;98520.56;;;9.23;79.94
13241;BME280;6687;47.790;7.322;2022-11-20T17:48:05;98515.34;;;9.63;79.27
13241;BME280;6687;47.790;7.322;2022-11-20T17:50:32;98505.03;;;9.39;79.51
13241;BME280;6687;47.790;7.322;2022-11-20T17:52:59;98498.13;;;9.07;77.71
13241;BME280;6687;47.790;7.322;2022-11-20T17:55:27;98505.03;;;9.48;80.68
13241;BME280;6687;47.790;7.322;2022-11-20T17:58:14;98505.03;;;9.46;79.88
13241;BME280;6687;47.790;7.322;2022-11-20T18:00:39;98494.66;;;9.63;80.20
13241;BME280;6687;47.790;7.322;2022-11-20T18:03:06;98505.03;;;8.99;76.89
13241;BME280;6687;47.790;7.322;2022-11-20T18:05:33;98499.88;;;9.22;77.04
13241;BME280;6687;47.790;7.322;2022-11-20T18:07:59;98509.34;;;9.24;78.89
13241;BME280;6687;47.790;7.322;2022-11-20T18:10:29;98516.22;;;9.21;78.67
13241;BME280;6687;47.790;7.322;2022-11-20T18:12:56;98518.81;;;8.94;80.10
13241;BME280;6687;47.790;7.322;2022-11-20T18:15:22;98515.38;;;8.95;79.58
13241;BME280;6687;47.790;7.322;2022-11-20T18:17:49;98510.19;;;8.92;80.98
13241;BME280;6687;47.790;7.322;2022-11-20T18:20:16;98508.44;;;8.64;78.41
13241;BME280;6687;47.790;7.322;2022-11-20T18:22:43;98509.25;;;8.56;80.88
13241;BME280;6687;47.790;7.322;2022-11-20T18:25:10;98517.00;;;8.56;81.11
13241;BME280;6687;47.790;7.322;2022-11-20T18:27:38;98515.31;;;8.77;83.39
13241;BME280;6687;47.790;7.322;2022-11-20T18:30:06;98503.28;;;8.64;84.35
13241;BME280;6687;47.790;7.322;2022-11-20T18:32:33;98494.69;;;8.99;83.91
13241;BME280;6687;47.790;7.322;2022-11-20T18:35:01;98496.41;;;8.78;84.74
13241;BME280;6687;47.790;7.322;2022-11-20T18:37:27;98503.31;;;8.94;84.36
13241;BME280;6687;47.790;7.322;2022-11-20T18:39:54;98517.09;;;9.06;81.53
13241;BME280;6687;47.790;7.322;2022-11-20T18:42:21;98504.16;;;8.92;82.50
13241;BME280;6687;47.790;7.322;2022-11-20T18:45:07;98510.03;;;8.28;84.82
13241;BME280;6687;47.790;7.322;2022-11-20T18:47:35;98520.44;;;8.46;86.35
13241;BME280;6687;47.790;7.322;2022-11-20T18:50:06;98525.69;;;8.86;85.52
13241;BME280;6687;47.790;7.322;2022-11-20T18:52:37;98531.66;;;8.58;85.23
13241;BME280;6687;47.790;7.322;2022-11-20T18:55:05;98530.84;;;8.80;85.83
13241;BME280;6687;47.790;7.322;2022-11-20T18:57:32;98527.41;;;8.90;85.17
13241;BME280;6687;47.790;7.322;2022-11-20T18:59:59;98525.53;;;8.40;85.39
13241;BME280;6687;47.790;7.322;2022-11-20T19:02:28;98523.13;;;9.02;84.99
13241;BME280;6687;47.790;7.322;2022-11-20T19:04:55;98527.41;;;8.90;84.61
13241;BME280;6687;47.790;7.322;2022-11-20T19:07:22;98533.41;;;8.68;86.10
13241;BME280;6687;47.790;7.322;2022-11-20T19:09:50;98535.06;;;8.49;86.96
13241;BME280;6687;47.790;7.322;2022-11-20T19:12:18;98534.25;;;8.73;86.30
13241;BME280;6687;47.790;7.322;2022-11-20T19:14:45;98530.78;;;8.59;86.68
13241;BME280;6687;47.790;7.322;2022-11-20T19:17:12;98541.13;;;8.59;86.88
13241;BME280;6687;47.790;7.322;2022-11-20T19:19:40;98542.78;;;8.44;87.79
13241;BME280;6687;47.790;7.322;2022-11-20T19:22:07;98535.16;;;8.83;87.75
13241;BME280;6687;47.790;7.322;2022-11-20T19:24:34;98531.72;;;8.78;87.02
13241;BME280;6687;47.790;7.322;2022-11-20T19:27:01;98541.13;;;8.62;86.15
13241;BME280;6687;47.790;7.322;2022-11-20T19:29:27;98542.03;;;8.76;86.09
13241;BME280;6687;47.790;7.322;2022-11-20T19:31:54;98551.44;;;8.55;87.53
13241;BME280;6687;47.790;7.322;2022-11-20T19:34:21;98546.34;;;8.74;86.56
13241;BME280;6687;47.790;7.322;2022-11-20T19:36:49;98535.19;;;8.98;85.55
13241;BME280;6687;47.790;7.322;2022-11-20T19:39:16;98534.31;;;9.01;85.13
13241;BME280;6687;47.790;7.322;2022-11-20T19:41:43;98534.31;;;8.99;84.87
13241;BME280;6687;47.790;7.322;2022-11-20T19:44:11;98533.47;;;9.02;84.73
13241;BME280;6687;47.790;7.322;2022-11-20T19:46:39;98531.72;;;9.13;84.34
13241;BME280;6687;47.790;7.322;2022-11-20T19:49:08;98535.19;;;9.06;84.46
13241;BME280;6687;47.790;7.322;2022-11-20T19:51:36;98533.47;;;9.09;83.64